sensor_id;sensor_type;location;lat;lon;timestamp;P1;durP1;ratioP1;P2;durP2;ratioP2
63664;SDS011;49820;33.966;73.390;2022-09-13T00:00:02;19.13;;;9.68;;
63664;SDS011;49820;33.966;73.390;2022-09-13T00:02:32;19.83;;;9.38;;
63664;SDS011;49820;33.966;73.390;2022-09-13T00:05:00;15.52;;;9.63;;
63664;SDS011;49820;33.966;73.390;2022-09-13T00:07:29;16.05;;;10.02;;
63664;SDS011;49820;33.966;73.390;2022-09-13T00:09:58;21.65;;;10.35;;
63664;SDS011;49820;33.966;73.390;2022-09-13T00:12:27;15.85;;;9.20;;
63664;SDS011;49820;33.966;73.390;2022-09-13T00:14:56;15.60;;;8.75;;
63664;SDS011;49820;33.966;73.390;2022-09-13T00:17:25;18.63;;;9.70;;
63664;SDS011;49820;33.966;73.390;2022-09-13T00:19:54;15.32;;;9.90;;
63664;SDS011;49820;33.966;73.390;2022-09-13T00:22:23;15.20;;;9.50;;
63664;SDS011;49820;33.966;73.390;2022-09-13T00:24:52;17.23;;;9.70;;
63664;SDS011;49820;33.966;73.390;2022-09-13T00:27:21;13.55;;;9.45;;
63664;SDS011;49820;33.966;73.390;2022-09-13T00:29:49;18.33;;;9.55;;
63664;SDS011;49820;33.966;73.390;2022-09-13T00:32:18;17.23;;;10.00;;
63664;SDS011;49820;33.966;73.390;2022-09-13T00:34:47;17.48;;;9.88;;
63664;SDS011;49820;33.966;73.390;2022-09-13T00:37:16;15.63;;;9.82;;
63664;SDS011;49820;33.966;73.390;2022-09-13T00:39:45;16.02;;;9.43;;
63664;SDS011;49820;33.966;73.390;2022-09-13T00:42:16;17.40;;;9.35;;
63664;SDS011;49820;33.966;73.390;2022-09-13T00:53:12;18.60;;;9.88;;
63664;SDS011;49820;33.966;73.390;2022-09-13T00:55:59;18.27;;;9.97;;
63664;SDS011;49820;33.966;73.390;2022-09-13T00:58:31;17.73;;;9.88;;
63664;SDS011;49820;33.966;73.390;2022-09-13T01:01:03;18.63;;;9.40;;
63664;SDS011;49820;33.966;73.390;2022-09-13T01:03:36;17.48;;;9.55;;
63664;SDS011;49820;33.966;73.390;2022-09-13T01:06:26;13.45;;;8.95;;
63664;SDS011;49820;33.966;73.390;2022-09-13T01:09:00;25.40;;;10.02;;
63664;SDS011;49820;33.966;73.390;2022-09-13T01:11:42;17.67;;;10.35;;
63664;SDS011;49820;33.966;73.390;2022-09-13T01:14:17;17.02;;;9.65;;
63664;SDS011;49820;33.966;73.390;2022-09-13T01:16:47;18.92;;;9.50;;
63664;SDS011;49820;33.966;73.390;2022-09-13T01:19:17;16.00;;;9.20;;
63664;SDS011;49820;33.966;73.390;2022-09-13T01:30:23;17.48;;;10.23;;
63664;SDS011;49820;33.966;73.390;2022-09-13T01:33:11;17.47;;;10.93;;
63664;SDS011;49820;33.966;73.390;2022-09-13T01:45:27;28.08;;;15.25;;
63664;SDS011;49820;33.966;73.390;2022-09-13T01:48:09;23.50;;;16.90;;
63664;SDS011;49820;33.966;73.390;2022-09-13T01:51:06;34.03;;;18.15;;
63664;SDS011;49820;33.966;73.390;2022-09-13T01:53:49;26.30;;;14.10;;
63664;SDS011;49820;33.966;73.390;2022-09-13T01:56:32;18.30;;;9.95;;
63664;SDS011;49820;33.966;73.390;2022-09-13T01:59:15;17.80;;;10.27;;
63664;SDS011;49820;33.966;73.390;2022-09-13T02:02:12;19.00;;;10.13;;
63664;SDS011;49820;33.966;73.390;2022-09-13T02:05:04;27.48;;;16.77;;
63664;SDS011;49820;33.966;73.390;2022-09-13T02:07:49;21.60;;;10.90;;
63664;SDS011;49820;33.966;73.390;2022-09-13T02:10:31;15.50;;;9.90;;
63664;SDS011;49820;33.966;73.390;2022-09-13T02:13:04;17.23;;;9.80;;
63664;SDS011;49820;33.966;73.390;2022-09-13T02:15:41;15.88;;;9.90;;
63664;SDS011;49820;33.966;73.390;2022-09-13T02:18:15;14.07;;;7.50;;
63664;SDS011;49820;33.966;73.390;2022-09-13T02:20:52;13.98;;;8.50;;
63664;SDS011;49820;33.966;73.390;2022-09-13T02:24:01;14.18;;;8.00;;
63664;SDS011;49820;33.966;73.390;2022-09-13T02:26:27;14.40;;;8.07;;
63664;SDS011;49820;33.966;73.390;2022-09-13T02:28:57;14.40;;;8.38;;
63664;SDS011;49820;33.966;73.390;2022-09-13T02:31:35;12.95;;;8.27;;
63664;SDS011;49820;33.966;73.390;2022-09-13T02:34:11;16.45;;;8.52;;
63664;SDS011;49820;33.966;73.390;2022-09-13T02:36:44;11.35;;;7.88;;
63664;SDS011;49820;33.966;73.390;2022-09-13T02:39:16;17.60;;;10.23;;
63664;SDS011;49820;33.966;73.390;2022-09-13T02:41:55;17.83;;;10.55;;
63664;SDS011;49820;33.966;73.390;2022-09-13T02:44:42;13.65;;;8.13;;
63664;SDS011;49820;33.966;73.390;2022-09-13T02:58:55;12.23;;;7.68;;
63664;SDS011;49820;33.966;73.390;2022-09-13T03:01:32;13.00;;;7.97;;
63664;SDS011;49820;33.966;73.390;2022-09-13T03:04:03;16.08;;;8.32;;
63664;SDS011;49820;33.966;73.390;2022-09-13T03:06:32;15.07;;;7.57;;
63664;SDS011;49820;33.966;73.390;2022-09-13T03:09:02;13.90;;;8.37;;
63664;SDS011;49820;33.966;73.390;2022-09-13T03:14:39;11.63;;;8.25;;
63664;SDS011;49820;33.966;73.390;2022-09-13T03:20:01;12.00;;;7.95;;
63664;SDS011;49820;33.966;73.390;2022-09-13T03:25:26;13.70;;;8.23;;
63664;SDS011;49820;33.966;73.390;2022-09-13T03:30:55;11.45;;;8.05;;
63664;SDS011;49820;33.966;73.390;2022-09-13T03:33:53;12.93;;;7.85;;
63664;SDS011;49820;33.966;73.390;2022-09-13T03:36:31;11.07;;;8.13;;
63664;SDS011;49820;33.966;73.390;2022-09-13T03:39:11;13.40;;;8.18;;
63664;SDS011;49820;33.966;73.390;2022-09-13T03:41:54;11.97;;;8.20;;
63664;SDS011;49820;33.966;73.390;2022-09-13T03:44:29;13.13;;;8.20;;
63664;SDS011;49820;33.966;73.390;2022-09-13T03:47:00;11.88;;;7.93;;
63664;SDS011;49820;33.966;73.390;2022-09-13T03:49:32;12.95;;;8.95;;
63664;SDS011;49820;33.966;73.390;2022-09-13T03:52:06;12.40;;;7.90;;
63664;SDS011;49820;33.966;73.390;2022-09-13T03:54:36;13.37;;;7.50;;
63664;SDS011;49820;33.966;73.390;2022-09-13T03:57:13;14.23;;;8.27;;
63664;SDS011;49820;33.966;73.390;2022-09-13T03:59:46;11.70;;;8.20;;
63664;SDS011;49820;33.966;73.390;2022-09-13T04:02:23;11.53;;;7.97;;
63664;SDS011;49820;33.966;73.390;2022-09-13T04:04:53;9.55;;;7.75;;
63664;SDS011;49820;33.966;73.390;2022-09-13T04:07:23;12.13;;;8.05;;
63664;SDS011;49820;33.966;73.390;2022-09-13T04:09:52;14.55;;;8.15;;
63664;SDS011;49820;33.966;73.390;2022-09-13T04:12:21;12.52;;;8.02;;
63664;SDS011;49820;33.966;73.390;2022-09-13T04:14:50;13.32;;;8.02;;
63664;SDS011;49820;33.966;73.390;2022-09-13T04:17:19;10.80;;;7.93;;
63664;SDS011;49820;33.966;73.390;2022-09-13T04:19:49;16.95;;;8.02;;
63664;SDS011;49820;33.966;73.390;2022-09-13T04:22:18;12.77;;;8.23;;
63664;SDS011;49820;33.966;73.390;2022-09-13T04:24:47;13.00;;;8.82;;
63664;SDS011;49820;33.966;73.390;2022-09-13T04:27:16;12.32;;;7.82;;
63664;SDS011;49820;33.966;73.390;2022-09-13T04:29:45;13.75;;;8.43;;
63664;SDS011;49820;33.966;73.390;2022-09-13T04:32:13;13.03;;;8.50;;
63664;SDS011;49820;33.966;73.390;2022-09-13T04:34:42;13.45;;;8.00;;
63664;SDS011;49820;33.966;73.390;2022-09-13T04:37:11;11.82;;;7.68;;
63664;SDS011;49820;33.966;73.390;2022-09-13T04:39:40;11.85;;;7.32;;
63664;SDS011;49820;33.966;73.390;2022-09-13T04:42:09;13.93;;;7.55;;
63664;SDS011;49820;33.966;73.390;2022-09-13T04:44:38;13.45;;;7.45;;
63664;SDS011;49820;33.966;73.390;2022-09-13T04:47:07;15.60;;;8.02;;
63664;SDS011;49820;33.966;73.390;2022-09-13T04:49:36;13.80;;;8.40;;
63664;SDS011;49820;33.966;73.390;2022-09-13T04:52:05;17.15;;;8.20;;
63664;SDS011;49820;33.966;73.390;2022-09-13T04:54:34;11.95;;;7.82;;
63664;SDS011;49820;33.966;73.390;2022-09-13T04:57:03;15.52;;;8.27;;
63664;SDS011;49820;33.966;73.390;2022-09-13T04:59:33;15.23;;;8.23;;
63664;SDS011;49820;33.966;73.390;2022-09-13T05:02:01;13.90;;;8.32;;
63664;SDS011;49820;33.966;73.390;2022-09-13T05:04:31;15.82;;;9.10;;
63664;SDS011;49820;33.966;73.390;2022-09-13T05:06:59;12.45;;;8.63;;
63664;SDS011;49820;33.966;73.390;2022-09-13T05:09:28;17.17;;;9.23;;
63664;SDS011;49820;33.966;73.390;2022-09-13T05:11:57;17.58;;;9.18;;
63664;SDS011;49820;33.966;73.390;2022-09-13T05:14:27;14.00;;;8.77;;
63664;SDS011;49820;33.966;73.390;2022-09-13T05:16:55;14.88;;;8.90;;
63664;SDS011;49820;33.966;73.390;2022-09-13T05:19:24;15.00;;;8.85;;
63664;SDS011;49820;33.966;73.390;2022-09-13T05:21:53;14.95;;;8.60;;
63664;SDS011;49820;33.966;73.390;2022-09-13T05:24:22;16.13;;;8.82;;
63664;SDS011;49820;33.966;73.390;2022-09-13T05:26:50;14.35;;;8.88;;
63664;SDS011;49820;33.966;73.390;2022-09-13T05:29:20;13.00;;;8.70;;
63664;SDS011;49820;33.966;73.390;2022-09-13T05:31:49;16.23;;;9.87;;
63664;SDS011;49820;33.966;73.390;2022-09-13T05:34:18;14.13;;;9.53;;
63664;SDS011;49820;33.966;73.390;2022-09-13T05:36:46;13.43;;;8.27;;
63664;SDS011;49820;33.966;73.390;2022-09-13T05:39:20;17.70;;;10.13;;
63664;SDS011;49820;33.966;73.390;2022-09-13T05:42:05;15.90;;;9.20;;
63664;SDS011;49820;33.966;73.390;2022-09-13T05:44:34;17.13;;;9.80;;
63664;SDS011;49820;33.966;73.390;2022-09-13T05:47:03;15.38;;;8.63;;
63664;SDS011;49820;33.966;73.390;2022-09-13T05:49:32;15.55;;;9.52;;
63664;SDS011;49820;33.966;73.390;2022-09-13T05:52:16;13.60;;;9.55;;
63664;SDS011;49820;33.966;73.390;2022-09-13T05:54:44;14.93;;;8.82;;
63664;SDS011;49820;33.966;73.390;2022-09-13T05:57:13;13.05;;;8.52;;
63664;SDS011;49820;33.966;73.390;2022-09-13T05:59:42;15.13;;;9.27;;
63664;SDS011;49820;33.966;73.390;2022-09-13T06:02:11;16.05;;;9.10;;
63664;SDS011;49820;33.966;73.390;2022-09-13T06:04:40;15.20;;;8.25;;
63664;SDS011;49820;33.966;73.390;2022-09-13T06:07:10;12.18;;;8.18;;
63664;SDS011;49820;33.966;73.390;2022-09-13T06:09:39;13.82;;;8.75;;
63664;SDS011;49820;33.966;73.390;2022-09-13T06:12:08;15.23;;;8.23;;
63664;SDS011;49820;33.966;73.390;2022-09-13T06:14:37;13.15;;;8.95;;
63664;SDS011;49820;33.966;73.390;2022-09-13T06:17:05;14.90;;;8.80;;
63664;SDS011;49820;33.966;73.390;2022-09-13T06:19:34;15.50;;;8.52;;
63664;SDS011;49820;33.966;73.390;2022-09-13T06:22:03;15.40;;;8.80;;
63664;SDS011;49820;33.966;73.390;2022-09-13T06:24:32;15.00;;;8.55;;
63664;SDS011;49820;33.966;73.390;2022-09-13T06:27:04;15.32;;;9.00;;
63664;SDS011;49820;33.966;73.390;2022-09-13T06:29:33;13.27;;;8.67;;
63664;SDS011;49820;33.966;73.390;2022-09-13T06:32:03;15.50;;;9.20;;
63664;SDS011;49820;33.966;73.390;2022-09-13T06:34:32;13.93;;;9.23;;
63664;SDS011;49820;33.966;73.390;2022-09-13T06:37:01;14.23;;;9.30;;
63664;SDS011;49820;33.966;73.390;2022-09-13T06:39:31;12.20;;;8.73;;
63664;SDS011;49820;33.966;73.390;2022-09-13T06:42:01;12.55;;;9.13;;
63664;SDS011;49820;33.966;73.390;2022-09-13T06:44:38;15.63;;;9.20;;
63664;SDS011;49820;33.966;73.390;2022-09-13T06:47:07;15.70;;;8.95;;
63664;SDS011;49820;33.966;73.390;2022-09-13T06:49:36;15.70;;;9.35;;
63664;SDS011;49820;33.966;73.390;2022-09-13T06:52:05;13.35;;;9.10;;
63664;SDS011;49820;33.966;73.390;2022-09-13T06:54:34;12.02;;;9.07;;
63664;SDS011;49820;33.966;73.390;2022-09-13T06:57:03;15.20;;;9.03;;
63664;SDS011;49820;33.966;73.390;2022-09-13T06:59:32;13.60;;;9.18;;
63664;SDS011;49820;33.966;73.390;2022-09-13T07:02:02;16.23;;;9.55;;
63664;SDS011;49820;33.966;73.390;2022-09-13T07:04:30;15.73;;;9.60;;
63664;SDS011;49820;33.966;73.390;2022-09-13T07:06:59;13.57;;;8.90;;
63664;SDS011;49820;33.966;73.390;2022-09-13T07:09:28;13.20;;;9.00;;
63664;SDS011;49820;33.966;73.390;2022-09-13T07:11:57;16.63;;;10.43;;
63664;SDS011;49820;33.966;73.390;2022-09-13T07:14:27;14.30;;;9.23;;
63664;SDS011;49820;33.966;73.390;2022-09-13T07:16:58;12.55;;;8.60;;
63664;SDS011;49820;33.966;73.390;2022-09-13T07:19:27;15.45;;;9.18;;
63664;SDS011;49820;33.966;73.390;2022-09-13T07:21:56;15.65;;;9.15;;
63664;SDS011;49820;33.966;73.390;2022-09-13T07:24:25;13.57;;;9.07;;
63664;SDS011;49820;33.966;73.390;2022-09-13T07:26:54;12.20;;;9.05;;
63664;SDS011;49820;33.966;73.390;2022-09-13T07:29:23;16.42;;;9.55;;
63664;SDS011;49820;33.966;73.390;2022-09-13T07:31:53;13.93;;;8.95;;
63664;SDS011;49820;33.966;73.390;2022-09-13T07:34:24;14.90;;;9.10;;
63664;SDS011;49820;33.966;73.390;2022-09-13T07:36:54;14.52;;;8.75;;
63664;SDS011;49820;33.966;73.390;2022-09-13T07:39:23;12.40;;;8.50;;
63664;SDS011;49820;33.966;73.390;2022-09-13T07:41:52;14.00;;;9.02;;
63664;SDS011;49820;33.966;73.390;2022-09-13T07:44:23;16.10;;;9.07;;
63664;SDS011;49820;33.966;73.390;2022-09-13T07:46:53;15.57;;;8.65;;
63664;SDS011;49820;33.966;73.390;2022-09-13T07:49:22;12.27;;;8.43;;
63664;SDS011;49820;33.966;73.390;2022-09-13T07:51:51;14.43;;;8.80;;
63664;SDS011;49820;33.966;73.390;2022-09-13T07:54:19;11.05;;;8.40;;
63664;SDS011;49820;33.966;73.390;2022-09-13T07:56:48;14.40;;;9.00;;
63664;SDS011;49820;33.966;73.390;2022-09-13T07:59:18;13.77;;;9.20;;
63664;SDS011;49820;33.966;73.390;2022-09-13T08:01:48;13.32;;;8.40;;
63664;SDS011;49820;33.966;73.390;2022-09-13T08:04:19;13.90;;;9.48;;
63664;SDS011;49820;33.966;73.390;2022-09-13T08:06:51;13.75;;;8.98;;
63664;SDS011;49820;33.966;73.390;2022-09-13T08:09:21;12.88;;;9.07;;
63664;SDS011;49820;33.966;73.390;2022-09-13T08:11:50;13.77;;;8.95;;
63664;SDS011;49820;33.966;73.390;2022-09-13T08:14:22;15.25;;;9.35;;
63664;SDS011;49820;33.966;73.390;2022-09-13T08:16:54;14.80;;;9.77;;
63664;SDS011;49820;33.966;73.390;2022-09-13T08:19:24;16.52;;;9.93;;
63664;SDS011;49820;33.966;73.390;2022-09-13T08:21:53;14.77;;;9.13;;
63664;SDS011;49820;33.966;73.390;2022-09-13T08:24:22;13.00;;;9.13;;
63664;SDS011;49820;33.966;73.390;2022-09-13T08:26:53;15.88;;;9.00;;
63664;SDS011;49820;33.966;73.390;2022-09-13T08:29:23;16.13;;;9.60;;
63664;SDS011;49820;33.966;73.390;2022-09-13T08:31:52;15.07;;;9.30;;
63664;SDS011;49820;33.966;73.390;2022-09-13T08:34:21;20.10;;;9.30;;
63664;SDS011;49820;33.966;73.390;2022-09-13T08:36:50;15.48;;;9.00;;
63664;SDS011;49820;33.966;73.390;2022-09-13T08:39:19;14.27;;;9.48;;
63664;SDS011;49820;33.966;73.390;2022-09-13T08:41:50;12.93;;;9.32;;
63664;SDS011;49820;33.966;73.390;2022-09-13T08:44:48;14.73;;;9.00;;
63664;SDS011;49820;33.966;73.390;2022-09-13T08:50:09;13.55;;;9.18;;
63664;SDS011;49820;33.966;73.390;2022-09-13T08:52:52;13.57;;;9.55;;
63664;SDS011;49820;33.966;73.390;2022-09-13T08:55:34;15.27;;;10.10;;
63664;SDS011;49820;33.966;73.390;2022-09-13T09:01:06;13.77;;;10.35;;
63664;SDS011;49820;33.966;73.390;2022-09-13T09:03:46;17.80;;;10.20;;
63664;SDS011;49820;33.966;73.390;2022-09-13T09:06:23;15.57;;;10.68;;
63664;SDS011;49820;33.966;73.390;2022-09-13T09:08:58;17.47;;;11.23;;
63664;SDS011;49820;33.966;73.390;2022-09-13T09:11:35;16.20;;;11.05;;
63664;SDS011;49820;33.966;73.390;2022-09-13T09:17:11;15.05;;;10.68;;
63664;SDS011;49820;33.966;73.390;2022-09-13T09:20:09;19.60;;;10.77;;
63664;SDS011;49820;33.966;73.390;2022-09-13T09:22:52;15.57;;;10.38;;
63664;SDS011;49820;33.966;73.390;2022-09-13T09:25:23;14.47;;;11.13;;
63664;SDS011;49820;33.966;73.390;2022-09-13T09:27:55;17.92;;;11.38;;
63664;SDS011;49820;33.966;73.390;2022-09-13T09:30:34;17.52;;;10.50;;
63664;SDS011;49820;33.966;73.390;2022-09-13T09:33:24;17.00;;;11.10;;
63664;SDS011;49820;33.966;73.390;2022-09-13T09:36:21;16.87;;;12.00;;
63664;SDS011;49820;33.966;73.390;2022-09-13T09:39:03;17.33;;;12.07;;
63664;SDS011;49820;33.966;73.390;2022-09-13T09:41:33;16.90;;;11.90;;
63664;SDS011;49820;33.966;73.390;2022-09-13T09:44:18;17.58;;;12.02;;
63664;SDS011;49820;33.966;73.390;2022-09-13T09:46:59;14.68;;;11.57;;
63664;SDS011;49820;33.966;73.390;2022-09-13T09:49:38;16.83;;;11.40;;
63664;SDS011;49820;33.966;73.390;2022-09-13T09:52:38;15.95;;;12.45;;
63664;SDS011;49820;33.966;73.390;2022-09-13T09:55:26;21.45;;;12.63;;
63664;SDS011;49820;33.966;73.390;2022-09-13T09:58:12;16.98;;;12.05;;
63664;SDS011;49820;33.966;73.390;2022-09-13T10:00:56;18.70;;;12.35;;
63664;SDS011;49820;33.966;73.390;2022-09-13T10:03:27;19.08;;;12.82;;
63664;SDS011;49820;33.966;73.390;2022-09-13T10:06:03;17.35;;;13.68;;
63664;SDS011;49820;33.966;73.390;2022-09-13T10:08:33;21.17;;;13.45;;
63664;SDS011;49820;33.966;73.390;2022-09-13T10:11:05;20.23;;;13.43;;
63664;SDS011;49820;33.966;73.390;2022-09-13T10:13:35;21.15;;;14.02;;
63664;SDS011;49820;33.966;73.390;2022-09-13T10:16:06;19.95;;;12.85;;
63664;SDS011;49820;33.966;73.390;2022-09-13T10:18:53;20.80;;;13.53;;
63664;SDS011;49820;33.966;73.390;2022-09-13T10:21:23;21.30;;;14.25;;
63664;SDS011;49820;33.966;73.390;2022-09-13T10:24:13;25.20;;;17.03;;
63664;SDS011;49820;33.966;73.390;2022-09-13T10:26:44;24.23;;;16.10;;
63664;SDS011;49820;33.966;73.390;2022-09-13T10:29:14;23.85;;;16.30;;
63664;SDS011;49820;33.966;73.390;2022-09-13T10:31:45;21.80;;;15.23;;
63664;SDS011;49820;33.966;73.390;2022-09-13T10:34:18;26.38;;;16.52;;
63664;SDS011;49820;33.966;73.390;2022-09-13T10:39:20;27.35;;;17.63;;
63664;SDS011;49820;33.966;73.390;2022-09-13T10:47:28;23.52;;;17.83;;
63664;SDS011;49820;33.966;73.390;2022-09-13T10:50:19;30.38;;;17.98;;
63664;SDS011;49820;33.966;73.390;2022-09-13T10:52:59;25.65;;;18.40;;
63664;SDS011;49820;33.966;73.390;2022-09-13T10:55:33;30.55;;;18.25;;
63664;SDS011;49820;33.966;73.390;2022-09-13T11:06:47;30.20;;;18.57;;
63664;SDS011;49820;33.966;73.390;2022-09-13T11:10:08;26.87;;;19.03;;
63664;SDS011;49820;33.966;73.390;2022-09-13T11:16:26;32.13;;;22.05;;
63664;SDS011;49820;33.966;73.390;2022-09-13T11:21:42;36.15;;;23.73;;
63664;SDS011;49820;33.966;73.390;2022-09-13T11:38:46;33.75;;;24.08;;
63664;SDS011;49820;33.966;73.390;2022-09-13T11:56:04;35.13;;;24.55;;
63664;SDS011;49820;33.966;73.390;2022-09-13T12:01:22;39.97;;;25.42;;
63664;SDS011;49820;33.966;73.390;2022-09-13T12:03:58;38.25;;;26.67;;
63664;SDS011;49820;33.966;73.390;2022-09-13T12:11:41;40.17;;;28.48;;
63664;SDS011;49820;33.966;73.390;2022-09-13T12:14:20;42.30;;;26.65;;
63664;SDS011;49820;33.966;73.390;2022-09-13T12:16:53;39.15;;;27.63;;
63664;SDS011;49820;33.966;73.390;2022-09-13T12:19:39;40.10;;;27.70;;
63664;SDS011;49820;33.966;73.390;2022-09-13T12:22:12;46.60;;;28.03;;
63664;SDS011;49820;33.966;73.390;2022-09-13T12:24:47;40.72;;;27.95;;
63664;SDS011;49820;33.966;73.390;2022-09-13T12:27:39;38.65;;;28.20;;
63664;SDS011;49820;33.966;73.390;2022-09-13T12:30:17;43.88;;;29.63;;
63664;SDS011;49820;33.966;73.390;2022-09-13T12:32:48;44.75;;;28.83;;
63664;SDS011;49820;33.966;73.390;2022-09-13T12:35:35;42.42;;;28.75;;
63664;SDS011;49820;33.966;73.390;2022-09-13T12:38:33;46.30;;;29.75;;
63664;SDS011;49820;33.966;73.390;2022-09-13T12:41:35;40.92;;;28.95;;
63664;SDS011;49820;33.966;73.390;2022-09-13T12:44:22;45.40;;;29.45;;
63664;SDS011;49820;33.966;73.390;2022-09-13T12:47:11;43.22;;;28.67;;
63664;SDS011;49820;33.966;73.390;2022-09-13T12:56:13;48.83;;;30.73;;
63664;SDS011;49820;33.966;73.390;2022-09-13T13:01:54;42.45;;;28.45;;
63664;SDS011;49820;33.966;73.390;2022-09-13T13:04:25;41.78;;;29.55;;
63664;SDS011;49820;33.966;73.390;2022-09-13T13:07:02;43.88;;;30.63;;
63664;SDS011;49820;33.966;73.390;2022-09-13T13:09:41;41.45;;;29.52;;
63664;SDS011;49820;33.966;73.390;2022-09-13T13:15:00;46.33;;;29.98;;
63664;SDS011;49820;33.966;73.390;2022-09-13T13:28:49;42.55;;;28.95;;
63664;SDS011;49820;33.966;73.390;2022-09-13T13:41:55;116.07;;;31.17;;
63664;SDS011;49820;33.966;73.390;2022-09-13T13:55:00;48.60;;;28.75;;
63664;SDS011;49820;33.966;73.390;2022-09-13T13:57:39;38.75;;;26.95;;
63664;SDS011;49820;33.966;73.390;2022-09-13T14:00:30;46.95;;;27.42;;
63664;SDS011;49820;33.966;73.390;2022-09-13T14:11:55;33.65;;;22.90;;
63664;SDS011;49820;33.966;73.390;2022-09-13T14:15:16;35.80;;;23.13;;
63664;SDS011;49820;33.966;73.390;2022-09-13T14:18:24;33.60;;;23.27;;
63664;SDS011;49820;33.966;73.390;2022-09-13T14:20:56;34.00;;;21.08;;
63664;SDS011;49820;33.966;73.390;2022-09-13T14:23:30;30.55;;;19.67;;
63664;SDS011;49820;33.966;73.390;2022-09-13T14:26:00;32.15;;;21.52;;
63664;SDS011;49820;33.966;73.390;2022-09-13T14:28:30;28.20;;;18.70;;
63664;SDS011;49820;33.966;73.390;2022-09-13T14:30:59;33.03;;;19.75;;
63664;SDS011;49820;33.966;73.390;2022-09-13T14:33:31;23.15;;;17.23;;
63664;SDS011;49820;33.966;73.390;2022-09-13T14:38:36;27.13;;;17.02;;
63664;SDS011;49820;33.966;73.390;2022-09-13T14:41:16;26.75;;;16.02;;
63664;SDS011;49820;33.966;73.390;2022-09-13T14:43:48;22.30;;;15.35;;
63664;SDS011;49820;33.966;73.390;2022-09-13T14:46:24;23.50;;;14.43;;
63664;SDS011;49820;33.966;73.390;2022-09-13T14:49:08;25.10;;;15.95;;
63664;SDS011;49820;33.966;73.390;2022-09-13T14:51:47;23.10;;;14.98;;
63664;SDS011;49820;33.966;73.390;2022-09-13T14:57:18;22.25;;;15.60;;
63664;SDS011;49820;33.966;73.390;2022-09-13T15:02:48;23.88;;;15.10;;
63664;SDS011;49820;33.966;73.390;2022-09-13T15:05:23;23.87;;;14.40;;
63664;SDS011;49820;33.966;73.390;2022-09-13T15:07:56;22.33;;;14.38;;
63664;SDS011;49820;33.966;73.390;2022-09-13T15:10:31;23.23;;;14.40;;
63664;SDS011;49820;33.966;73.390;2022-09-13T15:13:07;26.65;;;15.23;;
63664;SDS011;49820;33.966;73.390;2022-09-13T15:15:38;22.17;;;15.40;;
63664;SDS011;49820;33.966;73.390;2022-09-13T15:20:52;22.58;;;15.65;;
63664;SDS011;49820;33.966;73.390;2022-09-13T15:23:24;23.45;;;15.00;;
63664;SDS011;49820;33.966;73.390;2022-09-13T15:31:18;28.50;;;15.82;;
63664;SDS011;49820;33.966;73.390;2022-09-13T15:36:47;26.42;;;16.42;;
63664;SDS011;49820;33.966;73.390;2022-09-13T15:39:29;22.73;;;15.32;;
63664;SDS011;49820;33.966;73.390;2022-09-13T15:42:10;24.83;;;16.20;;
63664;SDS011;49820;33.966;73.390;2022-09-13T15:44:39;24.13;;;16.27;;
63664;SDS011;49820;33.966;73.390;2022-09-13T15:47:09;28.10;;;16.45;;
63664;SDS011;49820;33.966;73.390;2022-09-13T15:49:46;26.90;;;15.98;;
63664;SDS011;49820;33.966;73.390;2022-09-13T15:52:19;26.02;;;15.75;;
63664;SDS011;49820;33.966;73.390;2022-09-13T15:54:49;24.83;;;14.70;;
63664;SDS011;49820;33.966;73.390;2022-09-13T15:57:22;20.27;;;12.98;;
63664;SDS011;49820;33.966;73.390;2022-09-13T15:59:54;18.92;;;12.10;;
63664;SDS011;49820;33.966;73.390;2022-09-13T16:02:35;17.20;;;11.02;;
63664;SDS011;49820;33.966;73.390;2022-09-13T16:05:04;19.63;;;11.45;;
63664;SDS011;49820;33.966;73.390;2022-09-13T16:07:35;18.55;;;10.63;;
63664;SDS011;49820;33.966;73.390;2022-09-13T16:10:38;18.17;;;10.68;;
63664;SDS011;49820;33.966;73.390;2022-09-13T16:13:00;17.30;;;9.18;;
63664;SDS011;49820;33.966;73.390;2022-09-13T16:15:29;19.55;;;9.30;;
63664;SDS011;49820;33.966;73.390;2022-09-13T16:18:00;17.17;;;9.27;;
63664;SDS011;49820;33.966;73.390;2022-09-13T16:20:29;14.38;;;8.38;;
63664;SDS011;49820;33.966;73.390;2022-09-13T16:22:58;17.50;;;8.60;;
63664;SDS011;49820;33.966;73.390;2022-09-13T16:25:27;14.97;;;8.37;;
63664;SDS011;49820;33.966;73.390;2022-09-13T16:27:57;15.00;;;7.20;;
63664;SDS011;49820;33.966;73.390;2022-09-13T16:30:27;12.57;;;6.63;;
63664;SDS011;49820;33.966;73.390;2022-09-13T16:32:57;11.02;;;6.10;;
63664;SDS011;49820;33.966;73.390;2022-09-13T16:35:28;12.05;;;5.90;;
63664;SDS011;49820;33.966;73.390;2022-09-13T16:37:58;10.57;;;6.18;;
63664;SDS011;49820;33.966;73.390;2022-09-13T16:40:27;12.38;;;6.38;;
63664;SDS011;49820;33.966;73.390;2022-09-13T16:42:56;12.87;;;6.53;;
63664;SDS011;49820;33.966;73.390;2022-09-13T16:45:25;9.60;;;6.28;;
63664;SDS011;49820;33.966;73.390;2022-09-13T16:47:56;12.50;;;6.75;;
63664;SDS011;49820;33.966;73.390;2022-09-13T16:50:25;12.75;;;6.80;;
63664;SDS011;49820;33.966;73.390;2022-09-13T16:53:00;16.50;;;7.80;;
63664;SDS011;49820;33.966;73.390;2022-09-13T16:55:30;11.88;;;6.28;;
63664;SDS011;49820;33.966;73.390;2022-09-13T16:58:00;13.18;;;6.47;;
63664;SDS011;49820;33.966;73.390;2022-09-13T17:00:29;11.32;;;7.05;;
63664;SDS011;49820;33.966;73.390;2022-09-13T17:02:58;14.23;;;7.93;;
63664;SDS011;49820;33.966;73.390;2022-09-13T17:05:27;14.53;;;7.70;;
63664;SDS011;49820;33.966;73.390;2022-09-13T17:07:56;13.67;;;8.17;;
63664;SDS011;49820;33.966;73.390;2022-09-13T17:10:25;14.57;;;8.43;;
63664;SDS011;49820;33.966;73.390;2022-09-13T17:12:54;11.75;;;7.85;;
63664;SDS011;49820;33.966;73.390;2022-09-13T17:15:23;12.02;;;7.50;;
63664;SDS011;49820;33.966;73.390;2022-09-13T17:17:51;15.65;;;8.13;;
63664;SDS011;49820;33.966;73.390;2022-09-13T17:20:20;15.52;;;7.40;;
63664;SDS011;49820;33.966;73.390;2022-09-13T17:22:49;14.48;;;7.30;;
63664;SDS011;49820;33.966;73.390;2022-09-13T17:25:18;12.83;;;7.33;;
63664;SDS011;49820;33.966;73.390;2022-09-13T17:27:47;12.82;;;7.80;;
63664;SDS011;49820;33.966;73.390;2022-09-13T17:34:50;13.30;;;8.00;;
63664;SDS011;49820;33.966;73.390;2022-09-13T17:37:19;16.02;;;8.00;;
63664;SDS011;49820;33.966;73.390;2022-09-13T17:39:48;11.25;;;7.97;;
63664;SDS011;49820;33.966;73.390;2022-09-13T17:42:17;13.20;;;7.70;;
63664;SDS011;49820;33.966;73.390;2022-09-13T17:44:49;15.13;;;7.50;;
63664;SDS011;49820;33.966;73.390;2022-09-13T17:47:18;12.15;;;7.72;;
63664;SDS011;49820;33.966;73.390;2022-09-13T17:49:48;13.27;;;7.28;;
63664;SDS011;49820;33.966;73.390;2022-09-13T17:52:16;12.48;;;7.05;;
63664;SDS011;49820;33.966;73.390;2022-09-13T17:54:45;13.43;;;8.82;;
63664;SDS011;49820;33.966;73.390;2022-09-13T18:02:44;14.65;;;8.38;;
63664;SDS011;49820;33.966;73.390;2022-09-13T18:05:13;16.67;;;7.93;;
63664;SDS011;49820;33.966;73.390;2022-09-13T18:07:42;14.98;;;8.68;;
63664;SDS011;49820;33.966;73.390;2022-09-13T18:10:11;12.18;;;7.60;;
63664;SDS011;49820;33.966;73.390;2022-09-13T18:13:00;11.47;;;6.80;;
63664;SDS011;49820;33.966;73.390;2022-09-13T18:15:30;10.02;;;6.93;;